createdAt,value
2022-09-26T00:01:37.059Z,25.80
2022-09-26T00:04:09.155Z,23.65
2022-09-26T00:06:36.437Z,24.77
2022-09-26T00:09:03.432Z,27.50
2022-09-26T00:11:31.952Z,22.67
2022-09-26T00:14:00.903Z,28.48
2022-09-26T00:16:27.938Z,22.48
2022-09-26T00:18:55.908Z,25.08
2022-09-26T00:21:23.521Z,23.95
2022-09-26T00:23:50.458Z,24.67
2022-09-26T00:26:19.017Z,23.02
2022-09-26T00:28:45.944Z,22.67
2022-09-26T00:31:14.836Z,20.90
2022-09-26T00:33:41.862Z,17.33
2022-09-26T00:36:09.044Z,21.23
2022-09-26T00:38:36.704Z,16.23
2022-09-26T00:41:04.556Z,19.80
2022-09-26T00:43:40.450Z,20.92
2022-09-26T00:46:16.383Z,16.85
2022-09-26T00:48:46.253Z,17.40
2022-09-26T00:51:13.437Z,17.92
2022-09-26T00:53:42.383Z,17.40
2022-09-26T00:56:11.315Z,16.77
2022-09-26T00:58:44.971Z,15.88
2022-09-26T01:01:12.367Z,19.85
2022-09-26T01:03:42.436Z,19.30
2022-09-26T01:06:09.343Z,16.83
2022-09-26T01:08:38.969Z,17.08
2022-09-26T01:11:06.205Z,16.60
2022-09-26T01:13:35.004Z,18.02
2022-09-26T01:16:02.020Z,19.38
2022-09-26T01:18:29.255Z,16.85
2022-09-26T01:21:04.034Z,15.38
2022-09-26T01:23:31.073Z,16.98
2022-09-26T01:25:57.948Z,16.40
2022-09-26T01:28:43.358Z,16.25
2022-09-26T01:31:13.384Z,17.63
2022-09-26T01:33:49.911Z,16.73
2022-09-26T01:36:28.398Z,16.25
2022-09-26T01:38:56.075Z,16.15
2022-09-26T01:41:34.293Z,16.40
2022-09-26T01:44:09.108Z,19.67
2022-09-26T01:46:40.621Z,16.25
2022-09-26T01:49:14.607Z,17.80
2022-09-26T01:51:46.381Z,18.85
2022-09-26T01:54:18.050Z,16.58
2022-09-26T01:56:46.805Z,17.80
2022-09-26T01:59:25.557Z,17.58
2022-09-26T02:01:55.757Z,20.48
2022-09-26T02:04:26.022Z,17.83
2022-09-26T02:06:56.009Z,15.70
2022-09-26T02:09:26.980Z,19.75
2022-09-26T02:11:59.742Z,19.63
2022-09-26T02:14:29.932Z,17.13
2022-09-26T02:16:59.967Z,16.27
2022-09-26T02:19:29.134Z,16.10
2022-09-26T02:21:56.742Z,14.98
2022-09-26T02:24:23.771Z,20.08
2022-09-26T02:26:51.004Z,14.43
2022-09-26T02:29:20.372Z,18.70
2022-09-26T02:31:52.940Z,16.98
2022-09-26T02:36:46.585Z,19.65
2022-09-26T02:39:13.865Z,17.60
2022-09-26T02:41:52.864Z,16.95
2022-09-26T02:44:39.040Z,15.40
2022-09-26T02:47:12.201Z,13.68
2022-09-26T02:49:48.095Z,17.00
2022-09-26T02:52:38.365Z,14.68
2022-09-26T02:55:25.627Z,14.18
2022-09-26T02:58:04.165Z,15.05
2022-09-26T03:00:36.828Z,14.57
2022-09-26T03:03:08.032Z,11.50
2022-09-26T03:05:36.539Z,11.68
2022-09-26T03:08:11.792Z,13.57
2022-09-26T03:10:39.914Z,9.73
2022-09-26T03:13:09.037Z,13.23
2022-09-26T03:15:37.626Z,11.95
2022-09-26T03:18:07.184Z,16.70
2022-09-26T03:20:36.231Z,11.35
2022-09-26T03:23:04.114Z,11.35
2022-09-26T03:25:31.717Z,10.98
2022-09-26T03:28:05.862Z,13.13
2022-09-26T03:30:33.514Z,13.35
2022-09-26T03:33:35.779Z,15.85
2022-09-26T03:36:06.789Z,12.90
2022-09-26T03:38:33.651Z,12.95
2022-09-26T03:41:09.392Z,11.35
2022-09-26T03:43:56.396Z,12.23
2022-09-26T03:46:25.064Z,16.35
2022-09-26T03:48:52.704Z,11.95
2022-09-26T03:51:21.192Z,15.32
2022-09-26T03:53:48.120Z,13.38
2022-09-26T03:56:18.353Z,14.68
2022-09-26T03:58:46.093Z,12.80
2022-09-26T04:01:18.473Z,13.38
2022-09-26T04:03:50.587Z,11.82
2022-09-26T04:06:20.603Z,16.60
2022-09-26T04:11:16.580Z,13.63
2022-09-26T04:13:51.737Z,12.73
2022-09-26T04:16:23.524Z,14.88
2022-09-26T04:18:57.453Z,15.15
2022-09-26T04:21:27.248Z,12.32
2022-09-26T04:23:54.868Z,13.65
2022-09-26T04:26:24.303Z,13.60
2022-09-26T04:28:55.504Z,17.63
2022-09-26T04:31:27.827Z,14.10
2022-09-26T04:34:02.667Z,12.00
2022-09-26T04:36:29.584Z,14.10
2022-09-26T04:38:58.420Z,14.52
2022-09-26T04:41:25.539Z,12.95
2022-09-26T04:43:53.916Z,14.88
2022-09-26T04:46:25.759Z,12.48
2022-09-26T04:48:57.901Z,12.95
2022-09-26T04:51:26.117Z,18.25
2022-09-26T04:53:53.099Z,12.00
2022-09-26T04:56:26.199Z,13.35
2022-09-26T04:58:54.907Z,11.23
2022-09-26T05:01:22.167Z,11.05
2022-09-26T05:04:12.646Z,11.25
2022-09-26T05:06:39.809Z,14.15
2022-09-26T05:09:11.521Z,15.82
2022-09-26T05:11:47.313Z,17.60
2022-09-26T05:14:14.723Z,12.27
2022-09-26T05:16:41.728Z,12.73
2022-09-26T05:21:47.802Z,15.25
2022-09-26T05:24:33.100Z,12.43
2022-09-26T05:27:00.158Z,14.50
2022-09-26T05:29:27.003Z,19.17
2022-09-26T05:32:01.598Z,12.63
2022-09-26T05:34:32.704Z,16.67
2022-09-26T05:37:00.249Z,12.68
2022-09-26T05:39:45.714Z,15.23
2022-09-26T05:42:13.815Z,12.07
2022-09-26T05:44:40.835Z,12.15
2022-09-26T05:47:09.158Z,14.00
2022-09-26T05:49:37.369Z,13.73
2022-09-26T05:52:04.436Z,12.35
2022-09-26T05:54:31.684Z,11.05
2022-09-26T05:56:59.645Z,11.80
2022-09-26T05:59:38.445Z,14.55
2022-09-26T06:02:25.632Z,12.02
2022-09-26T06:05:11.504Z,12.20
2022-09-26T06:07:38.506Z,14.93
2022-09-26T06:10:10.084Z,9.10
2022-09-26T06:13:03.716Z,8.68
2022-09-26T06:15:33.779Z,9.90
2022-09-26T06:18:01.271Z,18.58
2022-09-26T06:20:28.361Z,12.50
2022-09-26T06:22:56.078Z,10.40
2022-09-26T06:25:23.108Z,9.38
2022-09-26T06:27:50.125Z,7.82
2022-09-26T06:30:17.047Z,9.70
2022-09-26T06:32:46.497Z,11.05
2022-09-26T06:35:21.354Z,13.82
2022-09-26T06:38:05.048Z,9.32
2022-09-26T06:40:33.862Z,9.52
2022-09-26T06:43:00.896Z,7.82
2022-09-26T06:45:53.759Z,10.88
2022-09-26T06:48:28.929Z,8.93
2022-09-26T06:51:01.583Z,11.05
2022-09-26T06:53:31.078Z,12.63
2022-09-26T06:55:59.154Z,8.65
2022-09-26T06:58:26.729Z,8.98
2022-09-26T07:01:01.790Z,11.38
2022-09-26T07:04:07.026Z,10.40
2022-09-26T07:06:33.889Z,9.43
2022-09-26T07:09:04.695Z,9.38
2022-09-26T07:12:15.036Z,8.48
2022-09-26T07:14:43.482Z,12.32
2022-09-26T07:17:23.511Z,9.40
2022-09-26T07:20:11.697Z,11.40
2022-09-26T07:23:02.577Z,9.65
2022-09-26T07:25:32.038Z,8.68
2022-09-26T07:28:01.101Z,8.00
2022-09-26T07:30:43.678Z,11.15
2022-09-26T07:33:25.520Z,10.05
2022-09-26T07:35:53.393Z,11.63
2022-09-26T07:38:21.936Z,14.32
2022-09-26T07:40:54.449Z,10.70
2022-09-26T07:43:35.659Z,11.25
2022-09-26T07:46:28.185Z,11.23
2022-09-26T07:49:15.124Z,11.95
2022-09-26T07:52:04.718Z,10.60
2022-09-26T07:54:43.500Z,9.90
2022-09-26T07:57:23.842Z,11.23
2022-09-26T08:00:19.812Z,12.77
2022-09-26T08:03:00.953Z,10.25
2022-09-26T08:05:29.359Z,10.30
2022-09-26T08:07:57.276Z,12.00
2022-09-26T08:10:43.271Z,9.93
2022-09-26T08:13:30.290Z,8.07
2022-09-26T08:16:23.125Z,6.82
2022-09-26T08:18:53.897Z,9.45
2022-09-26T08:21:22.126Z,9.43
2022-09-26T08:23:51.084Z,5.88
2022-09-26T08:26:44.059Z,6.70
2022-09-26T08:29:24.193Z,8.57
2022-09-26T08:31:54.864Z,5.82
2022-09-26T08:34:25.247Z,9.35
2022-09-26T08:37:16.174Z,5.85
2022-09-26T08:40:18.708Z,6.97
2022-09-26T08:43:34.447Z,9.98
2022-09-26T08:46:55.322Z,12.07
2022-09-26T08:49:40.507Z,8.07
2022-09-26T08:52:16.844Z,5.25
2022-09-26T08:54:45.310Z,5.03
2022-09-26T08:57:38.629Z,8.25
2022-09-26T09:00:21.867Z,7.57
2022-09-26T09:03:01.655Z,3.20
2022-09-26T09:05:31.586Z,3.45
2022-09-26T09:10:41.605Z,4.05
2022-09-26T09:13:32.753Z,4.63
2022-09-26T09:16:37.886Z,10.95
2022-09-26T09:19:25.417Z,3.38
2022-09-26T09:22:05.335Z,4.15
2022-09-26T09:24:46.030Z,4.43
2022-09-26T09:30:00.423Z,4.35
2022-09-26T09:32:51.808Z,4.78
2022-09-26T09:35:59.379Z,5.15
2022-09-26T09:38:45.064Z,4.93
2022-09-26T09:41:22.959Z,3.67
2022-09-26T09:43:52.913Z,5.90
2022-09-26T09:46:27.929Z,5.17
2022-09-26T09:49:02.602Z,3.33
2022-09-26T09:51:29.550Z,4.07
2022-09-26T09:54:11.783Z,4.43
2022-09-26T09:56:42.221Z,2.90
2022-09-26T09:59:29.980Z,2.47
2022-09-26T10:02:21.266Z,3.90
2022-09-26T10:04:56.860Z,4.47
2022-09-26T10:07:23.914Z,7.65
2022-09-26T10:10:15.058Z,5.07
2022-09-26T10:13:01.260Z,5.63
2022-09-26T10:15:58.032Z,2.75
2022-09-26T10:19:03.566Z,4.50
2022-09-26T10:21:33.620Z,5.43
2022-09-26T10:24:02.137Z,5.00
2022-09-26T10:26:40.080Z,6.18
2022-09-26T10:29:25.327Z,6.50
2022-09-26T10:31:56.995Z,5.88
2022-09-26T10:34:24.619Z,4.70
2022-09-26T10:36:51.991Z,2.72
2022-09-26T10:39:38.637Z,3.47
2022-09-26T10:42:14.505Z,3.97
2022-09-26T10:44:43.255Z,4.78
2022-09-26T10:47:46.285Z,4.53
2022-09-26T10:50:39.410Z,6.22
2022-09-26T10:53:25.364Z,5.68
2022-09-26T10:56:05.800Z,2.17
2022-09-26T10:58:39.045Z,6.03
2022-09-26T11:01:07.413Z,2.10
2022-09-26T11:03:44.471Z,3.10
2022-09-26T11:06:26.475Z,3.67
2022-09-26T11:09:02.485Z,2.58
2022-09-26T11:12:27.622Z,3.40
2022-09-26T11:15:00.861Z,3.25
2022-09-26T11:17:45.335Z,3.67
2022-09-26T11:20:32.750Z,2.35
2022-09-26T11:23:04.939Z,3.72
2022-09-26T11:25:35.819Z,2.55
2022-09-26T11:28:09.122Z,4.03
2022-09-26T11:30:56.816Z,1.63
2022-09-26T11:33:26.024Z,1.92
2022-09-26T11:36:31.811Z,2.78
2022-09-26T11:39:06.776Z,2.67
2022-09-26T11:41:39.880Z,2.97
2022-09-26T11:44:21.146Z,3.58
2022-09-26T11:47:24.894Z,3.03
2022-09-26T11:50:14.955Z,2.28
2022-09-26T11:53:23.326Z,4.70
2022-09-26T11:56:02.434Z,1.83
2022-09-26T11:58:43.703Z,2.45
2022-09-26T12:01:35.632Z,4.57
2022-09-26T12:04:21.833Z,6.57
2022-09-26T12:06:54.264Z,9.65
2022-09-26T12:09:26.752Z,4.05
2022-09-26T12:12:00.151Z,8.10
2022-09-26T12:14:37.136Z,6.55
2022-09-26T12:17:04.007Z,6.05
2022-09-26T12:19:39.414Z,5.78
2022-09-26T12:22:30.517Z,3.60
2022-09-26T12:25:00.484Z,3.72
2022-09-26T12:27:39.649Z,6.07
2022-09-26T12:30:11.339Z,6.22
2022-09-26T12:32:38.174Z,4.25
2022-09-26T12:35:13.999Z,4.25
2022-09-26T12:38:02.646Z,4.95
2022-09-26T12:40:40.480Z,9.55
2022-09-26T12:43:14.347Z,5.35
2022-09-26T12:45:42.324Z,3.53
2022-09-26T12:48:09.158Z,2.53
2022-09-26T12:50:45.938Z,2.17
2022-09-26T12:53:41.986Z,4.55
2022-09-26T12:56:09.346Z,5.55
2022-09-26T12:58:50.952Z,6.05
2022-09-26T13:01:20.033Z,8.43
2022-09-26T13:04:05.522Z,5.82
2022-09-26T13:07:17.279Z,4.82
2022-09-26T13:10:15.382Z,2.97
2022-09-26T13:12:57.247Z,17.48
2022-09-26T13:15:34.965Z,4.50
2022-09-26T13:18:06.078Z,3.33
2022-09-26T13:20:41.429Z,3.63
2022-09-26T13:23:11.326Z,4.40
2022-09-26T13:25:49.317Z,5.37
2022-09-26T13:28:19.746Z,6.78
2022-09-26T13:30:53.899Z,6.73
2022-09-26T13:33:21.363Z,5.78
2022-09-26T13:35:49.012Z,5.95
2022-09-26T13:38:33.754Z,5.20
2022-09-26T13:41:19.100Z,3.78
2022-09-26T13:43:47.730Z,5.05
2022-09-26T13:46:20.969Z,7.47
2022-09-26T13:49:13.472Z,4.75
2022-09-26T13:51:49.390Z,5.78
2022-09-26T13:54:19.529Z,7.07
2022-09-26T13:56:48.712Z,5.60
2022-09-26T13:59:18.070Z,4.53
2022-09-26T14:02:03.385Z,4.20
2022-09-26T14:04:34.372Z,7.82
2022-09-26T14:07:24.267Z,5.93
2022-09-26T14:09:59.214Z,7.68
2022-09-26T14:12:34.006Z,5.03
2022-09-26T14:15:16.289Z,3.33
2022-09-26T14:17:43.532Z,4.68
2022-09-26T14:20:23.036Z,3.63
2022-09-26T14:22:51.371Z,7.95
2022-09-26T14:25:36.949Z,6.50
2022-09-26T14:28:17.338Z,5.57
2022-09-26T14:31:04.336Z,5.80
2022-09-26T14:33:32.663Z,7.82
2022-09-26T14:36:24.154Z,5.82
2022-09-26T14:38:51.840Z,7.40
2022-09-26T14:41:20.099Z,10.63
2022-09-26T14:43:51.468Z,10.02
2022-09-26T14:46:20.012Z,6.53
2022-09-26T14:48:47.117Z,8.63
2022-09-26T14:51:18.836Z,7.22
2022-09-26T14:53:48.794Z,4.03
2022-09-26T14:56:29.590Z,6.53
2022-09-26T15:01:37.674Z,4.47
2022-09-26T15:04:10.852Z,4.22
2022-09-26T15:06:39.850Z,8.35
2022-09-26T15:09:11.597Z,6.05
2022-09-26T15:11:48.606Z,4.43
2022-09-26T15:14:25.491Z,6.00
2022-09-26T15:16:54.957Z,4.18
2022-09-26T15:19:32.935Z,3.72
2022-09-26T15:21:59.950Z,3.95
2022-09-26T15:24:28.506Z,7.55
2022-09-26T15:26:56.507Z,5.90
2022-09-26T15:29:23.571Z,5.25
2022-09-26T15:31:52.081Z,3.30
2022-09-26T15:34:19.559Z,4.72
2022-09-26T15:36:48.938Z,6.55
2022-09-26T15:39:31.276Z,3.72
2022-09-26T15:42:17.716Z,4.78
2022-09-26T15:44:49.101Z,5.82
2022-09-26T15:47:30.351Z,4.85
2022-09-26T15:50:14.678Z,8.23
2022-09-26T15:52:55.582Z,6.45
2022-09-26T15:55:24.846Z,5.22
2022-09-26T15:57:53.613Z,4.97
2022-09-26T16:00:20.914Z,6.22
2022-09-26T16:02:48.381Z,4.28
2022-09-26T16:05:16.362Z,3.78
2022-09-26T16:07:54.175Z,4.75
2022-09-26T16:10:31.893Z,4.10
2022-09-26T16:13:00.675Z,4.22
2022-09-26T16:15:29.869Z,4.55
2022-09-26T16:17:58.442Z,6.90
2022-09-26T16:20:27.848Z,4.90
2022-09-26T16:23:00.452Z,6.70
2022-09-26T16:25:32.682Z,4.28
2022-09-26T16:28:02.909Z,4.30
2022-09-26T16:30:33.862Z,4.57
2022-09-26T16:33:07.621Z,6.18
2022-09-26T16:35:36.191Z,3.95
2022-09-26T16:38:05.559Z,5.30
2022-09-26T16:40:33.747Z,5.47
2022-09-26T16:43:05.711Z,5.45
2022-09-26T16:45:45.530Z,3.95
2022-09-26T16:48:31.177Z,3.83
2022-09-26T16:51:13.798Z,4.68
2022-09-26T16:53:43.450Z,4.50
2022-09-26T16:56:14.698Z,4.05
2022-09-26T16:58:44.202Z,4.95
2022-09-26T17:01:30.475Z,6.03
2022-09-26T17:03:59.102Z,5.57
2022-09-26T17:06:26.585Z,8.35
2022-09-26T17:08:54.315Z,9.40
2022-09-26T17:11:21.722Z,7.93
2022-09-26T17:13:53.768Z,6.28
2022-09-26T17:16:22.783Z,8.27
2022-09-26T17:18:50.110Z,8.60
2022-09-26T17:21:17.327Z,5.00
2022-09-26T17:23:44.450Z,4.43
2022-09-26T17:26:21.902Z,5.43
2022-09-26T17:28:49.899Z,5.60
2022-09-26T17:31:21.139Z,9.02
2022-09-26T17:33:53.490Z,6.93
2022-09-26T17:36:23.407Z,6.47
2022-09-26T17:38:50.626Z,5.85
2022-09-26T17:41:17.890Z,5.82
2022-09-26T17:43:45.369Z,6.70
2022-09-26T17:46:16.586Z,5.93
2022-09-26T17:48:44.649Z,7.13
2022-09-26T17:51:15.231Z,6.00
2022-09-26T17:53:50.109Z,5.90
2022-09-26T17:56:20.140Z,7.60
2022-09-26T17:58:52.101Z,7.20
2022-09-26T18:01:24.577Z,6.45
2022-09-26T18:03:53.721Z,10.63
2022-09-26T18:06:26.375Z,9.93
2022-09-26T18:08:55.446Z,7.68
2022-09-26T18:11:22.523Z,9.80
2022-09-26T18:13:55.630Z,9.52
2022-09-26T18:16:23.525Z,9.02
2022-09-26T18:18:50.587Z,7.90
2022-09-26T18:21:18.911Z,10.20
2022-09-26T18:23:55.798Z,9.38
2022-09-26T18:26:33.651Z,8.35
2022-09-26T18:29:06.701Z,9.25
2022-09-26T18:31:36.809Z,14.07
2022-09-26T18:34:04.146Z,8.65
2022-09-26T18:36:33.377Z,10.27
2022-09-26T18:39:00.805Z,12.05
2022-09-26T18:41:28.775Z,8.57
2022-09-26T18:43:57.718Z,9.63
2022-09-26T18:46:25.129Z,8.00
2022-09-26T18:48:54.965Z,8.32
2022-09-26T18:51:22.482Z,13.50
2022-09-26T18:53:49.525Z,9.50
2022-09-26T18:56:35.405Z,6.28
2022-09-26T18:59:02.438Z,14.13
2022-09-26T19:01:41.582Z,8.43
2022-09-26T19:04:13.654Z,8.13
2022-09-26T19:06:45.658Z,6.88
2022-09-26T19:09:14.063Z,7.75
2022-09-26T19:11:41.575Z,11.75
2022-09-26T19:14:13.628Z,7.65
2022-09-26T19:16:41.537Z,10.90
2022-09-26T19:19:08.915Z,9.05
2022-09-26T19:21:44.655Z,7.00
2022-09-26T19:24:20.819Z,7.90
2022-09-26T19:26:59.267Z,8.82
2022-09-26T19:29:32.909Z,8.32
2022-09-26T19:32:00.325Z,8.80
2022-09-26T19:34:32.368Z,12.75
2022-09-26T19:37:01.619Z,8.80
2022-09-26T19:39:28.912Z,12.88
2022-09-26T19:41:55.776Z,9.32
2022-09-26T19:44:24.532Z,10.40
2022-09-26T19:46:51.487Z,7.57
2022-09-26T19:49:19.079Z,12.30
2022-09-26T19:51:46.829Z,9.65
2022-09-26T19:54:18.176Z,11.90
2022-09-26T19:56:46.695Z,9.40
2022-09-26T19:59:14.502Z,12.63
2022-09-26T20:01:42.500Z,9.90
2022-09-26T20:04:17.577Z,8.77
2022-09-26T20:06:45.184Z,9.65
2022-09-26T20:09:16.559Z,7.65
2022-09-26T20:11:43.540Z,8.60
2022-09-26T20:14:25.683Z,8.38
2022-09-26T20:16:57.500Z,8.82
2022-09-26T20:19:29.268Z,7.20
2022-09-26T20:21:59.970Z,8.77
2022-09-26T20:24:27.408Z,12.63
2022-09-26T20:26:55.191Z,6.70
2022-09-26T20:29:23.322Z,8.90
2022-09-26T20:31:50.385Z,8.00
2022-09-26T20:34:17.426Z,10.82
2022-09-26T20:36:46.752Z,13.65
2022-09-26T20:39:16.375Z,7.97
2022-09-26T20:41:43.830Z,10.93
2022-09-26T20:44:22.614Z,10.13
2022-09-26T20:46:54.057Z,9.30
2022-09-26T20:49:26.850Z,12.27
2022-09-26T20:51:53.797Z,10.07
2022-09-26T20:54:25.414Z,14.52
2022-09-26T20:56:53.205Z,9.85
2022-09-26T20:59:20.524Z,10.50
2022-09-26T21:01:47.554Z,13.82
2022-09-26T21:04:15.586Z,14.55
2022-09-26T21:06:43.148Z,10.77
2022-09-26T21:09:17.289Z,14.02
2022-09-26T21:11:45.254Z,11.02
2022-09-26T21:14:12.263Z,13.63
2022-09-26T21:16:41.256Z,15.48
2022-09-26T21:19:10.290Z,14.32
2022-09-26T21:21:37.854Z,15.90
2022-09-26T21:24:19.509Z,14.98
2022-09-26T21:26:48.485Z,18.85
2022-09-26T21:29:16.765Z,18.10
2022-09-26T21:31:46.926Z,15.27
2022-09-26T21:34:18.151Z,13.20
2022-09-26T21:36:45.709Z,18.67
2022-09-26T21:39:13.703Z,22.02
2022-09-26T21:41:40.778Z,17.73
2022-09-26T21:44:11.560Z,18.77
2022-09-26T21:49:05.211Z,17.83
2022-09-26T21:51:32.195Z,16.85
2022-09-26T21:54:03.087Z,17.30
2022-09-26T21:56:32.754Z,15.05
2022-09-26T21:58:59.967Z,20.60
2022-09-26T22:01:27.015Z,17.13
2022-09-26T22:03:54.269Z,18.88
2022-09-26T22:06:21.478Z,17.85
2022-09-26T22:08:48.378Z,13.07
2022-09-26T22:11:15.319Z,15.45
2022-09-26T22:13:42.184Z,19.52
2022-09-26T22:16:13.360Z,18.45
2022-09-26T22:18:40.857Z,16.45
2022-09-26T22:21:08.628Z,17.27
2022-09-26T22:23:35.894Z,16.40
2022-09-26T22:26:03.268Z,18.08
2022-09-26T22:28:30.284Z,20.20
2022-09-26T22:31:01.480Z,11.52
2022-09-26T22:33:28.518Z,13.45
2022-09-26T22:35:55.440Z,15.13
2022-09-26T22:38:22.302Z,18.17
2022-09-26T22:40:58.681Z,13.63
2022-09-26T22:43:25.996Z,11.60
2022-09-26T22:45:53.002Z,12.50
2022-09-26T22:48:19.979Z,15.25
2022-09-26T22:50:46.939Z,12.38
2022-09-26T22:53:13.767Z,12.60
2022-09-26T22:55:40.706Z,12.80
2022-09-26T22:58:07.708Z,14.73
2022-09-26T23:00:34.679Z,14.10
2022-09-26T23:03:01.640Z,13.30
2022-09-26T23:05:28.632Z,11.65
2022-09-26T23:07:55.759Z,10.45
2022-09-26T23:10:22.624Z,12.93
2022-09-26T23:12:50.799Z,10.55
2022-09-26T23:15:18.470Z,11.73
2022-09-26T23:17:46.329Z,12.40
2022-09-26T23:20:13.165Z,15.07
2022-09-26T23:22:40.090Z,15.93
2022-09-26T23:25:08.063Z,9.80
2022-09-26T23:27:35.129Z,12.68
2022-09-26T23:30:02.053Z,12.05
2022-09-26T23:32:30.448Z,14.52
2022-09-26T23:34:57.287Z,13.15
2022-09-26T23:37:24.232Z,10.50
2022-09-26T23:39:51.050Z,10.50
2022-09-26T23:42:17.987Z,11.65
2022-09-26T23:44:44.875Z,9.88
2022-09-26T23:47:11.845Z,8.43
2022-09-26T23:49:38.741Z,10.07
2022-09-26T23:52:05.601Z,10.00
2022-09-26T23:54:32.605Z,8.48
2022-09-26T23:57:00.251Z,7.80
2022-09-26T23:59:27.530Z,13.20
